Terminal Aerodrome Forecast
Issued by NWS

Home | Current Version | Previous Version | Text Only | Print | Product List | Glossary On
Versions: 1 2 3 4 5 6 7 8 9 10 11 12 13 14 15 16 17 18 19
000
FTUS41 KBGM 282331
TAFELM
TAF
KELM 282331Z 2900/2924 VRB03KT P6SM SCT120 BKN250
     FM290600 VRB03KT P6SM BKN120
     FM291500 23012G20KT P6SM SCT060 SCT120=

USA.gov is the U.S. government's official web portal to all federal, state and local government web resources and services.